createdAt,value
2019-03-12T00:00:48.677Z,100006.00
2019-03-12T00:03:17.982Z,100018.00
2019-03-12T00:05:47.175Z,100016.00
2019-03-12T00:08:16.360Z,100023.00
2019-03-12T00:10:45.532Z,100026.00
2019-03-12T00:13:14.699Z,100020.00
2019-03-12T00:15:43.879Z,100026.00
2019-03-12T00:18:13.028Z,100036.00
2019-03-12T00:20:42.664Z,100043.00
2019-03-12T00:23:11.916Z,100049.00
2019-03-12T00:25:41.170Z,100063.00
2019-03-12T00:28:10.556Z,100048.00
2019-03-12T00:30:39.966Z,100053.00
2019-03-12T00:33:09.165Z,100063.00
2019-03-12T00:35:38.583Z,100065.00
2019-03-12T00:38:07.741Z,100079.00
2019-03-12T00:40:37.214Z,100091.00
2019-03-12T00:43:06.626Z,100095.00
2019-03-12T00:45:35.833Z,100097.00
2019-03-12T00:48:05.027Z,100107.00
2019-03-12T00:50:34.215Z,100109.00
2019-03-12T00:53:03.738Z,100114.00
2019-03-12T00:55:33.181Z,100115.00
2019-03-12T00:58:02.493Z,100119.00
2019-03-12T01:00:31.856Z,100123.00
2019-03-12T01:03:01.389Z,100124.00
2019-03-12T01:05:31.084Z,100135.00
2019-03-12T01:08:00.349Z,100129.00
2019-03-12T01:10:29.563Z,100130.00
2019-03-12T01:12:59.155Z,100131.00
2019-03-12T01:15:28.470Z,100140.00
2019-03-12T01:17:57.884Z,100135.00
2019-03-12T01:20:27.369Z,100128.00
2019-03-12T01:22:56.609Z,100134.00
2019-03-12T01:25:25.881Z,100130.00
2019-03-12T01:27:55.067Z,100142.00
2019-03-12T01:30:24.581Z,100144.00
2019-03-12T01:32:54.081Z,100142.00
2019-03-12T01:35:23.586Z,100152.00
2019-03-12T01:37:52.800Z,100154.00
2019-03-12T01:40:22.291Z,100150.00
2019-03-12T01:42:52.650Z,100151.00
2019-03-12T01:45:22.133Z,100160.00
2019-03-12T01:47:51.331Z,100154.00
2019-03-12T01:50:20.828Z,100158.00
2019-03-12T01:52:50.437Z,100155.00
2019-03-12T01:55:19.750Z,100163.00
2019-03-12T01:57:49.245Z,100163.00
2019-03-12T02:00:20.488Z,100170.00
2019-03-12T02:02:49.898Z,100172.00
2019-03-12T02:05:19.403Z,100177.00
2019-03-12T02:07:48.911Z,100169.00
2019-03-12T02:10:18.415Z,100169.00
2019-03-12T02:12:47.828Z,100186.00
2019-03-12T02:15:18.154Z,100181.00
2019-03-12T02:17:47.456Z,100180.00
2019-03-12T02:20:17.943Z,100179.00
2019-03-12T02:22:47.288Z,100195.00
2019-03-12T02:25:18.728Z,100183.00
2019-03-12T02:27:48.452Z,100178.00
2019-03-12T02:30:21.224Z,100182.00
2019-03-12T02:32:50.443Z,100185.00
2019-03-12T02:35:19.830Z,100190.00
2019-03-12T02:37:49.239Z,100189.00
2019-03-12T02:40:18.449Z,100198.00
2019-03-12T02:42:47.972Z,100186.00
2019-03-12T02:45:17.517Z,100185.00
2019-03-12T02:47:46.677Z,100189.00
2019-03-12T02:50:16.882Z,100186.00
2019-03-12T02:52:46.002Z,100180.00
2019-03-12T02:55:15.875Z,100176.00
2019-03-12T02:57:45.273Z,100180.00
2019-03-12T03:00:23.559Z,100182.00
2019-03-12T03:02:52.725Z,100189.00
2019-03-12T03:05:22.166Z,100189.00
2019-03-12T03:07:53.014Z,100188.00
2019-03-12T03:10:22.572Z,100185.00
2019-03-12T03:12:52.141Z,100189.00
2019-03-12T03:15:26.410Z,100190.00
2019-03-12T03:17:55.645Z,100188.00
2019-03-12T03:20:25.051Z,100191.00
2019-03-12T03:22:54.555Z,100179.00
2019-03-12T03:25:23.725Z,100186.00
2019-03-12T03:27:53.129Z,100190.00
2019-03-12T03:30:25.835Z,100182.00
2019-03-12T03:32:55.293Z,100189.00
2019-03-12T03:35:24.737Z,100190.00
2019-03-12T03:37:54.000Z,100189.00
2019-03-12T03:40:23.861Z,100182.00
2019-03-12T03:42:53.328Z,100196.00
2019-03-12T03:45:23.182Z,100200.00
2019-03-12T03:47:52.585Z,100212.00
2019-03-12T03:50:21.812Z,100201.00
2019-03-12T03:52:50.974Z,100205.00
2019-03-12T03:55:23.388Z,100192.00
2019-03-12T03:57:53.155Z,100195.00
2019-03-12T04:00:25.516Z,100197.00
2019-03-12T04:02:54.934Z,100196.00
2019-03-12T04:05:25.824Z,100200.00
2019-03-12T04:07:55.254Z,100196.00
2019-03-12T04:10:24.490Z,100192.00
2019-03-12T04:12:53.652Z,100189.00
2019-03-12T04:15:22.923Z,100190.00
2019-03-12T04:17:52.357Z,100187.00
2019-03-12T04:20:21.518Z,100191.00
2019-03-12T04:22:50.697Z,100181.00
2019-03-12T04:25:19.912Z,100189.00
2019-03-12T04:27:49.330Z,100187.00
2019-03-12T04:30:19.970Z,100193.00
2019-03-12T04:32:49.172Z,100195.00
2019-03-12T04:35:31.021Z,100197.00
2019-03-12T04:38:00.450Z,100203.00
2019-03-12T04:40:29.901Z,100200.00
2019-03-12T04:42:59.047Z,100199.00
2019-03-12T04:45:28.314Z,100218.00
2019-03-12T04:47:57.543Z,100216.00
2019-03-12T04:50:26.868Z,100226.00
2019-03-12T04:52:56.024Z,100224.00
2019-03-12T04:55:25.182Z,100210.00
2019-03-12T04:57:54.598Z,100216.00
2019-03-12T05:00:24.531Z,100218.00
2019-03-12T05:02:53.739Z,100218.00
2019-03-12T05:05:23.287Z,100215.00
2019-03-12T05:07:52.820Z,100219.00
2019-03-12T05:10:22.228Z,100230.00
2019-03-12T05:12:51.404Z,100216.00
2019-03-12T05:15:21.055Z,100220.00
2019-03-12T05:17:50.524Z,100226.00
2019-03-12T05:20:19.687Z,100220.00
2019-03-12T05:22:51.975Z,100218.00
2019-03-12T05:25:21.152Z,100223.00
2019-03-12T05:27:50.369Z,100212.00
2019-03-12T05:30:20.947Z,100217.00
2019-03-12T05:32:50.112Z,100224.00
2019-03-12T05:35:19.604Z,100212.00
2019-03-12T05:37:49.114Z,100221.00
2019-03-12T05:40:18.265Z,100226.00
2019-03-12T05:42:47.509Z,100220.00
2019-03-12T05:45:18.348Z,100225.00
2019-03-12T05:47:47.533Z,100222.00
2019-03-12T05:50:21.299Z,100224.00
2019-03-12T05:53:13.990Z,100222.00
2019-03-12T05:55:43.472Z,100216.00
2019-03-12T05:58:12.684Z,100217.00
2019-03-12T06:00:42.084Z,100215.00
2019-03-12T06:03:11.511Z,100212.00
2019-03-12T06:05:40.687Z,100213.00
2019-03-12T06:08:10.112Z,100222.00
2019-03-12T06:10:39.326Z,100233.00
2019-03-12T06:13:08.747Z,100230.00
2019-03-12T06:15:38.143Z,100235.00
2019-03-12T06:18:07.343Z,100230.00
2019-03-12T06:20:37.084Z,100225.00
2019-03-12T06:23:06.532Z,100221.00
2019-03-12T06:25:35.750Z,100227.00
2019-03-12T06:28:04.914Z,100218.00
2019-03-12T06:30:35.958Z,100215.00
2019-03-12T06:33:07.377Z,100219.00
2019-03-12T06:35:44.541Z,100219.00
2019-03-12T06:38:18.311Z,100220.00
2019-03-12T06:41:04.281Z,100215.00
2019-03-12T06:43:43.754Z,100217.00
2019-03-12T06:46:14.820Z,100218.00
2019-03-12T06:48:45.624Z,100209.00
2019-03-12T06:51:19.951Z,100202.00
2019-03-12T06:54:07.310Z,100202.00
2019-03-12T06:56:40.982Z,100206.00
2019-03-12T06:59:17.544Z,100202.00
2019-03-12T07:02:04.565Z,100191.00
2019-03-12T07:04:52.103Z,100187.00
2019-03-12T07:07:35.302Z,100197.00
2019-03-12T07:10:08.584Z,100191.00
2019-03-12T07:12:42.601Z,100195.00
2019-03-12T07:15:16.733Z,100199.00
2019-03-12T07:18:02.897Z,100207.00
2019-03-12T07:20:39.651Z,100204.00
2019-03-12T07:23:19.456Z,100202.00
2019-03-12T07:26:02.295Z,100210.00
2019-03-12T07:28:33.315Z,100203.00
2019-03-12T07:31:04.271Z,100198.00
2019-03-12T07:33:35.067Z,100202.00
2019-03-12T07:36:08.932Z,100208.00
2019-03-12T07:38:39.722Z,100207.00
2019-03-12T07:41:32.227Z,100204.00
2019-03-12T07:44:02.319Z,100216.00
2019-03-12T07:46:33.306Z,100208.00
2019-03-12T07:49:20.326Z,100206.00
2019-03-12T07:51:51.156Z,100207.00
2019-03-12T07:54:38.075Z,100208.00
2019-03-12T07:57:11.557Z,100215.00
2019-03-12T07:59:59.031Z,100217.00
2019-03-12T08:02:33.101Z,100207.00
2019-03-12T08:05:04.215Z,100202.00
2019-03-12T08:07:44.099Z,100202.00
2019-03-12T08:10:33.961Z,100207.00
2019-03-12T08:13:23.394Z,100208.00
2019-03-12T08:15:54.553Z,100213.00
2019-03-12T08:18:25.359Z,100216.00
2019-03-12T08:21:21.766Z,100205.00
2019-03-12T08:24:00.007Z,100206.00
2019-03-12T08:26:39.980Z,100202.00
2019-03-12T08:29:13.496Z,100203.00
2019-03-12T08:32:00.712Z,100190.00
2019-03-12T08:34:31.519Z,100188.00
2019-03-12T08:37:02.330Z,100183.00
2019-03-12T08:39:33.349Z,100179.00
2019-03-12T08:42:15.907Z,100180.00
2019-03-12T08:45:02.817Z,100185.00
2019-03-12T08:47:34.025Z,100192.00
2019-03-12T08:50:13.572Z,100177.00
2019-03-12T08:52:56.553Z,100174.00
2019-03-12T08:55:43.795Z,100173.00
2019-03-12T08:58:20.400Z,100177.00
2019-03-12T09:01:00.123Z,100162.00
2019-03-12T09:03:31.261Z,100164.00
2019-03-12T09:06:14.151Z,100163.00
2019-03-12T09:08:45.300Z,100156.00
2019-03-12T09:11:19.039Z,100164.00
2019-03-12T09:13:52.373Z,100147.00
2019-03-12T09:16:25.592Z,100146.00
2019-03-12T09:19:01.254Z,100139.00
2019-03-12T09:21:35.484Z,100146.00
2019-03-12T09:24:09.644Z,100133.00
2019-03-12T09:26:43.416Z,100137.00
2019-03-12T09:29:17.276Z,100122.00
2019-03-12T09:32:00.389Z,100122.00
2019-03-12T09:34:31.272Z,100122.00
2019-03-12T09:37:07.774Z,100119.00
2019-03-12T09:39:41.055Z,100122.00
2019-03-12T09:42:28.680Z,100111.00
2019-03-12T09:45:02.618Z,100114.00
2019-03-12T09:47:39.281Z,100105.00
2019-03-12T09:50:23.748Z,100104.00
2019-03-12T09:52:54.773Z,100088.00
2019-03-12T09:55:28.081Z,100089.00
2019-03-12T09:58:02.067Z,100090.00
2019-03-12T10:00:33.177Z,100081.00
2019-03-12T10:03:04.007Z,100091.00
2019-03-12T10:05:53.361Z,100085.00
2019-03-12T10:08:24.345Z,100087.00
2019-03-12T10:11:01.074Z,100082.00
2019-03-12T10:13:48.467Z,100087.00
2019-03-12T10:16:35.515Z,100088.00
2019-03-12T10:19:06.392Z,100082.00
2019-03-12T10:21:37.446Z,100078.00
2019-03-12T10:24:14.082Z,100067.00
2019-03-12T10:26:54.346Z,100064.00
2019-03-12T10:29:41.532Z,100041.00
2019-03-12T10:32:27.241Z,100046.00
2019-03-12T10:34:58.334Z,100043.00
2019-03-12T10:37:41.419Z,100042.00
2019-03-12T10:40:22.833Z,100041.00
2019-03-12T10:43:03.670Z,100030.00
2019-03-12T10:45:40.260Z,100027.00
2019-03-12T10:48:11.228Z,100018.00
2019-03-12T10:50:40.553Z,100014.00
2019-03-12T10:53:09.817Z,100010.00
2019-03-12T10:55:38.954Z,100007.00
2019-03-12T10:58:08.236Z,99995.00
2019-03-12T11:00:37.767Z,100004.00
2019-03-12T11:03:07.255Z,100000.00
2019-03-12T11:05:45.758Z,99997.00
2019-03-12T11:08:07.389Z,99991.00
2019-03-12T11:10:36.780Z,99981.00
2019-03-12T11:13:05.968Z,99984.00
2019-03-12T11:15:35.473Z,99983.00
2019-03-12T11:18:05.155Z,99981.00
2019-03-12T11:20:34.338Z,99980.00
2019-03-12T11:23:03.741Z,99967.00
2019-03-12T11:25:32.946Z,99960.00
2019-03-12T11:28:02.279Z,99956.00
2019-03-12T11:30:31.406Z,99948.00
2019-03-12T11:33:00.570Z,99948.00
2019-03-12T11:35:38.691Z,99937.00
2019-03-12T11:38:01.242Z,99927.00
2019-03-12T11:40:32.392Z,99923.00
2019-03-12T11:43:01.276Z,99932.00
2019-03-12T11:45:36.171Z,99932.00
2019-03-12T11:48:01.662Z,99933.00
2019-03-12T11:50:31.348Z,99923.00
2019-03-12T11:53:01.020Z,99914.00
2019-03-12T11:55:30.687Z,99912.00
2019-03-12T11:58:00.385Z,99908.00
2019-03-12T12:00:34.707Z,99901.00
2019-03-12T12:03:04.208Z,99896.00
2019-03-12T12:05:33.364Z,99878.00
2019-03-12T12:08:02.927Z,99883.00
2019-03-12T12:10:32.539Z,99878.00
2019-03-12T12:13:01.735Z,99858.00
2019-03-12T12:15:31.377Z,99861.00
2019-03-12T12:18:00.724Z,99842.00
2019-03-12T12:20:30.601Z,99836.00
2019-03-12T12:23:00.333Z,99834.00
2019-03-12T12:25:29.546Z,99821.00
2019-03-12T12:27:58.925Z,99820.00
2019-03-12T12:30:28.324Z,99823.00
2019-03-12T12:32:57.539Z,99826.00
2019-03-12T12:35:26.885Z,99813.00
2019-03-12T12:37:56.294Z,99798.00
2019-03-12T12:40:29.083Z,99795.00
2019-03-12T12:42:58.926Z,99784.00
2019-03-12T12:45:39.795Z,99780.00
2019-03-12T12:48:09.278Z,99772.00
2019-03-12T12:50:38.756Z,99775.00
2019-03-12T12:53:08.012Z,99764.00
2019-03-12T12:55:37.180Z,99757.00
2019-03-12T12:58:06.683Z,99761.00
2019-03-12T13:00:38.311Z,99745.00
2019-03-12T13:03:07.360Z,99742.00
2019-03-12T13:05:36.509Z,99737.00
2019-03-12T13:08:05.994Z,99734.00
2019-03-12T13:10:36.060Z,99720.00
2019-03-12T13:13:05.232Z,99729.00
2019-03-12T13:15:34.412Z,99717.00
2019-03-12T13:18:03.943Z,99719.00
2019-03-12T13:20:33.222Z,99710.00
2019-03-12T13:23:02.433Z,99707.00
2019-03-12T13:25:31.850Z,99693.00
2019-03-12T13:28:01.611Z,99694.00
2019-03-12T13:30:30.878Z,99679.00
2019-03-12T13:33:00.317Z,99673.00
2019-03-12T13:35:29.830Z,99670.00
2019-03-12T13:37:59.085Z,99669.00
2019-03-12T13:40:28.637Z,99669.00
2019-03-12T13:42:57.817Z,99658.00
2019-03-12T13:45:29.355Z,99659.00
2019-03-12T13:47:58.684Z,99652.00
2019-03-12T13:50:28.630Z,99657.00
2019-03-12T13:52:58.249Z,99647.00
2019-03-12T13:55:27.455Z,99649.00
2019-03-12T13:57:56.775Z,99631.00
2019-03-12T14:00:29.464Z,99636.00
2019-03-12T14:02:58.665Z,99630.00
2019-03-12T14:05:27.856Z,99623.00
2019-03-12T14:07:56.977Z,99633.00
2019-03-12T14:10:26.934Z,99617.00
2019-03-12T14:12:56.813Z,99613.00
2019-03-12T14:15:46.896Z,99611.00
2019-03-12T14:18:16.108Z,99607.00
2019-03-12T14:20:59.992Z,99602.00
2019-03-12T14:23:47.093Z,99591.00
2019-03-12T14:26:16.423Z,99588.00
2019-03-12T14:28:45.567Z,99581.00
2019-03-12T14:31:15.050Z,99573.00
2019-03-12T14:33:44.218Z,99563.00
2019-03-12T14:36:13.431Z,99563.00
2019-03-12T14:38:42.624Z,99565.00
2019-03-12T14:41:12.032Z,99547.00
2019-03-12T14:43:41.465Z,99554.00
2019-03-12T14:46:10.720Z,99539.00
2019-03-12T14:48:54.743Z,99533.00
2019-03-12T14:51:43.309Z,99528.00
2019-03-12T14:54:13.399Z,99528.00
2019-03-12T14:56:42.685Z,99510.00
2019-03-12T14:59:11.837Z,99503.00
2019-03-12T15:01:41.419Z,99499.00
2019-03-12T15:04:10.637Z,99492.00
2019-03-12T15:06:40.160Z,99494.00
2019-03-12T15:09:11.744Z,99475.00
2019-03-12T15:11:40.961Z,99471.00
2019-03-12T15:14:10.090Z,99468.00
2019-03-12T15:16:39.356Z,99457.00
2019-03-12T15:19:08.736Z,99436.00
2019-03-12T15:21:37.937Z,99461.00
2019-03-12T15:24:07.121Z,99451.00
2019-03-12T15:26:36.272Z,99442.00
2019-03-12T15:29:05.411Z,99440.00
2019-03-12T15:31:34.946Z,99440.00
2019-03-12T15:34:04.956Z,99431.00
2019-03-12T15:36:34.186Z,99431.00
2019-03-12T15:39:04.172Z,99415.00
2019-03-12T15:41:33.650Z,99407.00
2019-03-12T15:44:04.067Z,99401.00
2019-03-12T15:46:33.472Z,99388.00
2019-03-12T15:49:03.682Z,99384.00
2019-03-12T15:51:32.905Z,99388.00
2019-03-12T15:54:02.041Z,99371.00
2019-03-12T15:56:31.280Z,99366.00
2019-03-12T15:59:00.473Z,99356.00
2019-03-12T16:01:29.887Z,99340.00
2019-03-12T16:03:59.421Z,99338.00
2019-03-12T16:06:28.574Z,99319.00
2019-03-12T16:08:57.986Z,99314.00
2019-03-12T16:11:27.244Z,99304.00
2019-03-12T16:13:58.601Z,99306.00
2019-03-12T16:16:27.940Z,99304.00
2019-03-12T16:18:57.212Z,99291.00
2019-03-12T16:21:26.687Z,99289.00
2019-03-12T16:23:55.889Z,99276.00
2019-03-12T16:26:26.204Z,99267.00
2019-03-12T16:28:55.379Z,99250.00
2019-03-12T16:31:24.591Z,99261.00
2019-03-12T16:33:53.767Z,99248.00
2019-03-12T16:36:23.229Z,99244.00
2019-03-12T16:38:52.747Z,99238.00
2019-03-12T16:41:22.098Z,99238.00
2019-03-12T16:43:51.221Z,99219.00
2019-03-12T16:46:20.790Z,99213.00
2019-03-12T16:48:50.100Z,99205.00
2019-03-12T16:51:19.289Z,99202.00
2019-03-12T16:53:48.459Z,99193.00
2019-03-12T16:56:18.173Z,99187.00
2019-03-12T16:58:47.312Z,99178.00
2019-03-12T17:01:16.438Z,99167.00
2019-03-12T17:03:45.549Z,99166.00
2019-03-12T17:06:14.686Z,99163.00
2019-03-12T17:08:44.048Z,99166.00
2019-03-12T17:11:13.439Z,99148.00
2019-03-12T17:13:42.529Z,99150.00
2019-03-12T17:16:12.575Z,99136.00
2019-03-12T17:18:41.973Z,99128.00
2019-03-12T17:21:11.295Z,99127.00
2019-03-12T17:23:40.378Z,99108.00
2019-03-12T17:26:09.728Z,99116.00
2019-03-12T17:28:39.044Z,99102.00
2019-03-12T17:31:08.117Z,99106.00
2019-03-12T17:33:37.598Z,99103.00
2019-03-12T17:36:06.669Z,99109.00
2019-03-12T17:38:46.030Z,99091.00
2019-03-12T17:41:09.079Z,99095.00
2019-03-12T17:43:40.202Z,99084.00
2019-03-12T17:46:09.587Z,99069.00
2019-03-12T17:48:38.705Z,99067.00
2019-03-12T17:51:08.070Z,99061.00
2019-03-12T17:53:37.272Z,99053.00
2019-03-12T17:56:09.015Z,99044.00
2019-03-12T17:58:38.093Z,99031.00
2019-03-12T18:01:07.559Z,99034.00
2019-03-12T18:03:36.694Z,99025.00
2019-03-12T18:06:05.779Z,99015.00
2019-03-12T18:08:34.853Z,99007.00
2019-03-12T18:11:03.973Z,99002.00
2019-03-12T18:13:33.110Z,98986.00
2019-03-12T18:16:02.578Z,98980.00
2019-03-12T18:18:31.690Z,98977.00
2019-03-12T18:21:01.018Z,98975.00
2019-03-12T18:23:30.178Z,98967.00
2019-03-12T18:25:59.721Z,98959.00
2019-03-12T18:28:29.061Z,98951.00
2019-03-12T18:30:58.604Z,98939.00
2019-03-12T18:33:27.927Z,98931.00
2019-03-12T18:35:57.132Z,98930.00
2019-03-12T18:38:26.242Z,98918.00
2019-03-12T18:40:55.510Z,98907.00
2019-03-12T18:43:24.709Z,98900.00
2019-03-12T18:45:53.826Z,98898.00
2019-03-12T18:48:22.983Z,98879.00
2019-03-12T18:50:52.087Z,98887.00
2019-03-12T18:53:21.527Z,98881.00
2019-03-12T18:55:56.376Z,98872.00
2019-03-12T18:58:25.589Z,98852.00
2019-03-12T19:00:55.617Z,98854.00
2019-03-12T19:03:25.028Z,98856.00
2019-03-12T19:05:54.113Z,98842.00
2019-03-12T19:08:27.455Z,98841.00
2019-03-12T19:10:59.173Z,98825.00
2019-03-12T19:13:28.374Z,98818.00
2019-03-12T19:15:57.505Z,98805.00
2019-03-12T19:18:26.706Z,98803.00
2019-03-12T19:20:57.107Z,98794.00
2019-03-12T19:23:26.244Z,98781.00
2019-03-12T19:25:55.510Z,98769.00
2019-03-12T19:28:24.832Z,98761.00
2019-03-12T19:30:55.601Z,98759.00
2019-03-12T19:33:26.346Z,98750.00
2019-03-12T19:35:55.453Z,98746.00
2019-03-12T19:38:24.919Z,98743.00
2019-03-12T19:40:57.193Z,98733.00
2019-03-12T19:43:26.323Z,98725.00
2019-03-12T19:45:55.539Z,98721.00
2019-03-12T19:48:24.667Z,98721.00
2019-03-12T19:50:53.765Z,98716.00
2019-03-12T19:53:23.443Z,98707.00
2019-03-12T19:56:07.903Z,98706.00
2019-03-12T19:58:37.037Z,98715.00
2019-03-12T20:01:06.531Z,98697.00
2019-03-12T20:03:35.673Z,98688.00
2019-03-12T20:06:04.843Z,98677.00
2019-03-12T20:08:33.991Z,98678.00
2019-03-12T20:11:52.270Z,98656.00
2019-03-12T20:14:44.306Z,98653.00
2019-03-12T20:17:34.637Z,98647.00
2019-03-12T20:20:22.299Z,98637.00
2019-03-12T20:23:42.818Z,98630.00
2019-03-12T20:26:34.494Z,98608.00
2019-03-12T20:29:24.849Z,98611.00
2019-03-12T20:32:09.410Z,98595.00
2019-03-12T20:34:50.657Z,98591.00
2019-03-12T20:37:55.634Z,98586.00
2019-03-12T20:40:49.296Z,98568.00
2019-03-12T20:43:56.474Z,98571.00
2019-03-12T20:46:49.803Z,98550.00
2019-03-12T20:49:36.838Z,98549.00
2019-03-12T20:52:31.810Z,98555.00
2019-03-12T20:55:26.442Z,98550.00
2019-03-12T20:58:13.787Z,98554.00
2019-03-12T21:01:05.493Z,98543.00
2019-03-12T21:04:20.617Z,98523.00
2019-03-12T21:07:02.178Z,98536.00
2019-03-12T21:10:07.775Z,98525.00
2019-03-12T21:12:52.020Z,98524.00
2019-03-12T21:15:45.175Z,98523.00
2019-03-12T21:18:38.514Z,98520.00
2019-03-12T21:21:44.064Z,98526.00
2019-03-12T21:24:37.327Z,98515.00
2019-03-12T21:27:17.208Z,98497.00
2019-03-12T21:29:46.108Z,98488.00
2019-03-12T21:32:16.941Z,98484.00
2019-03-12T21:34:46.579Z,98471.00
2019-03-12T21:37:16.052Z,98463.00
2019-03-12T21:39:55.395Z,98454.00
2019-03-12T21:42:16.945Z,98447.00
2019-03-12T21:44:46.178Z,98439.00
2019-03-12T21:47:15.633Z,98427.00
2019-03-12T21:49:45.040Z,98433.00
2019-03-12T21:52:14.333Z,98425.00
2019-03-12T21:54:43.952Z,98426.00
2019-03-12T21:57:14.756Z,98418.00
2019-03-12T21:59:44.336Z,98405.00
2019-03-12T22:02:13.958Z,98400.00
2019-03-12T22:04:43.668Z,98386.00
2019-03-12T22:07:13.133Z,98377.00
2019-03-12T22:09:42.563Z,98363.00
2019-03-12T22:12:11.990Z,98371.00
2019-03-12T22:14:41.626Z,98346.00
2019-03-12T22:17:10.809Z,98342.00
2019-03-12T22:19:40.251Z,98337.00
2019-03-12T22:22:17.684Z,98331.00
2019-03-12T22:24:46.837Z,98337.00
2019-03-12T22:27:16.006Z,98341.00
2019-03-12T22:29:45.150Z,98338.00
2019-03-12T22:32:14.524Z,98337.00
2019-03-12T22:34:43.903Z,98326.00
2019-03-12T22:37:13.499Z,98329.00
2019-03-12T22:39:42.716Z,98321.00
2019-03-12T22:42:11.891Z,98340.00
2019-03-12T22:44:41.108Z,98328.00
2019-03-12T22:47:10.327Z,98318.00
2019-03-12T22:49:39.868Z,98297.00
2019-03-12T22:52:09.265Z,98296.00
2019-03-12T22:54:38.704Z,98301.00
2019-03-12T22:57:08.274Z,98297.00
2019-03-12T22:59:37.804Z,98293.00
2019-03-12T23:02:07.287Z,98288.00
2019-03-12T23:04:36.767Z,98271.00
2019-03-12T23:07:05.917Z,98283.00
2019-03-12T23:09:35.545Z,98275.00
2019-03-12T23:12:04.821Z,98264.00
2019-03-12T23:14:33.988Z,98262.00
2019-03-12T23:17:03.228Z,98270.00
2019-03-12T23:19:32.353Z,98261.00
2019-03-12T23:22:01.867Z,98268.00
2019-03-12T23:24:31.215Z,98268.00
2019-03-12T23:27:00.377Z,98280.00
2019-03-12T23:29:29.503Z,98281.00
2019-03-12T23:31:58.719Z,98275.00
2019-03-12T23:34:28.083Z,98284.00
2019-03-12T23:36:57.190Z,98268.00
2019-03-12T23:39:26.292Z,98287.00
2019-03-12T23:41:55.720Z,98269.00
2019-03-12T23:44:24.817Z,98272.00
2019-03-12T23:46:54.194Z,98285.00
2019-03-12T23:49:23.543Z,98273.00
2019-03-12T23:51:52.660Z,98264.00
2019-03-12T23:54:21.746Z,98257.00
2019-03-12T23:56:50.831Z,98253.00
2019-03-12T23:59:20.183Z,98259.00
